createdAt,value
2019-03-15T00:00:20.088Z,6.49
2019-03-15T00:02:46.764Z,6.53
2019-03-15T00:05:13.593Z,6.46
2019-03-15T00:07:41.274Z,6.40
2019-03-15T00:10:29.444Z,6.39
2019-03-15T00:12:56.137Z,6.40
2019-03-15T00:15:22.826Z,6.41
2019-03-15T00:17:49.590Z,6.38
2019-03-15T00:20:16.270Z,6.37
2019-03-15T00:22:43.069Z,6.30
2019-03-15T00:25:09.741Z,6.29
2019-03-15T00:27:36.327Z,6.24
2019-03-15T00:30:04.602Z,6.24
2019-03-15T00:32:31.292Z,6.17
2019-03-15T00:34:57.870Z,6.24
2019-03-15T00:37:24.567Z,6.22
2019-03-15T00:39:51.264Z,6.20
2019-03-15T00:42:17.962Z,6.21
2019-03-15T00:44:44.570Z,6.24
2019-03-15T00:47:11.180Z,6.28
2019-03-15T00:49:37.764Z,6.29
2019-03-15T00:52:04.575Z,6.30
2019-03-15T00:54:31.167Z,6.30
2019-03-15T00:56:58.105Z,6.36
2019-03-15T00:59:24.656Z,6.36
2019-03-15T01:01:51.362Z,6.30
2019-03-15T01:04:18.145Z,6.35
2019-03-15T01:06:44.859Z,6.34
2019-03-15T01:09:11.551Z,6.39
2019-03-15T01:11:38.246Z,6.32
2019-03-15T01:14:05.029Z,6.23
2019-03-15T01:16:31.739Z,6.20
2019-03-15T01:18:58.546Z,6.17
2019-03-15T01:21:25.266Z,6.18
2019-03-15T01:23:51.835Z,6.19
2019-03-15T01:26:18.679Z,6.18
2019-03-15T01:28:45.317Z,6.13
2019-03-15T01:31:11.933Z,6.15
2019-03-15T01:33:38.646Z,6.11
2019-03-15T01:36:05.331Z,6.17
2019-03-15T01:38:32.023Z,6.26
2019-03-15T01:40:58.601Z,6.33
2019-03-15T01:43:26.432Z,6.32
2019-03-15T01:45:53.020Z,6.12
2019-03-15T01:48:19.728Z,6.12
2019-03-15T01:50:46.504Z,6.20
2019-03-15T01:53:13.123Z,6.19
2019-03-15T01:55:40.302Z,6.19
2019-03-15T01:58:07.082Z,6.19
2019-03-15T02:00:33.866Z,6.24
2019-03-15T02:03:02.314Z,6.27
2019-03-15T02:05:29.287Z,6.27
2019-03-15T02:07:56.104Z,6.21
2019-03-15T02:10:22.903Z,6.19
2019-03-15T02:12:49.484Z,6.24
2019-03-15T02:15:16.174Z,6.17
2019-03-15T02:17:42.866Z,6.17
2019-03-15T02:20:09.562Z,6.22
2019-03-15T02:22:36.329Z,6.33
2019-03-15T02:25:03.827Z,6.33
2019-03-15T02:27:30.645Z,6.26
2019-03-15T02:29:57.345Z,6.28
2019-03-15T02:32:24.058Z,6.28
2019-03-15T02:34:50.626Z,6.39
2019-03-15T02:37:17.323Z,6.32
2019-03-15T02:39:43.905Z,6.40
2019-03-15T02:42:10.518Z,6.30
2019-03-15T02:44:37.313Z,6.32
2019-03-15T02:47:04.133Z,6.36
2019-03-15T02:49:31.113Z,6.40
2019-03-15T02:51:57.700Z,6.30
2019-03-15T02:54:24.396Z,6.37
2019-03-15T02:56:51.078Z,6.36
2019-03-15T02:59:17.775Z,6.34
2019-03-15T03:01:44.366Z,6.37
2019-03-15T03:04:11.175Z,6.33
2019-03-15T03:06:37.950Z,6.42
2019-03-15T03:09:05.372Z,6.33
2019-03-15T03:11:32.070Z,6.40
2019-03-15T03:13:58.855Z,6.34
2019-03-15T03:16:25.641Z,6.45
2019-03-15T03:18:52.345Z,6.43
2019-03-15T03:21:19.052Z,6.37
2019-03-15T03:23:46.183Z,6.34
2019-03-15T03:26:13.548Z,6.39
2019-03-15T03:28:40.567Z,6.41
2019-03-15T03:31:07.338Z,6.48
2019-03-15T03:33:34.053Z,6.40
2019-03-15T03:36:01.044Z,6.42
2019-03-15T03:38:27.848Z,6.39
2019-03-15T03:40:56.275Z,6.37
2019-03-15T03:43:23.821Z,6.35
2019-03-15T03:45:50.593Z,6.44
2019-03-15T03:48:17.691Z,6.35
2019-03-15T03:50:44.470Z,6.36
2019-03-15T03:53:11.263Z,6.34
2019-03-15T03:55:37.939Z,6.34
2019-03-15T03:58:04.843Z,6.43
2019-03-15T04:00:31.535Z,6.40
2019-03-15T04:02:58.338Z,6.29
2019-03-15T04:05:25.432Z,6.29
2019-03-15T04:07:52.211Z,6.38
2019-03-15T04:10:19.011Z,6.42
2019-03-15T04:12:46.050Z,6.46
2019-03-15T04:15:12.871Z,6.33
2019-03-15T04:17:39.655Z,6.30
2019-03-15T04:20:06.944Z,6.36
2019-03-15T04:22:33.617Z,6.35
2019-03-15T04:25:00.423Z,6.38
2019-03-15T04:27:27.105Z,6.42
2019-03-15T04:29:53.995Z,6.43
2019-03-15T04:32:21.040Z,6.43
2019-03-15T04:34:47.650Z,6.44
2019-03-15T04:37:14.331Z,6.37
2019-03-15T04:39:41.136Z,6.41
2019-03-15T04:42:08.003Z,6.45
2019-03-15T04:44:34.732Z,6.45
2019-03-15T04:47:01.447Z,6.41
2019-03-15T04:49:28.015Z,6.38
2019-03-15T04:51:54.608Z,6.39
2019-03-15T04:54:21.315Z,6.39
2019-03-15T04:56:48.004Z,6.41
2019-03-15T04:59:14.605Z,6.34
2019-03-15T05:01:41.394Z,6.36
2019-03-15T05:04:08.467Z,6.44
2019-03-15T05:06:35.147Z,6.44
2019-03-15T05:09:02.000Z,6.43
2019-03-15T05:11:28.808Z,6.40
2019-03-15T05:13:58.699Z,6.42
2019-03-15T05:16:24.205Z,6.31
2019-03-15T05:18:50.893Z,6.35
2019-03-15T05:21:37.518Z,6.35
2019-03-15T05:24:04.302Z,6.35
2019-03-15T05:26:31.103Z,6.40
2019-03-15T05:28:57.788Z,6.41
2019-03-15T05:31:24.412Z,6.31
2019-03-15T05:33:50.986Z,6.33
2019-03-15T05:36:17.707Z,6.36
2019-03-15T05:38:44.519Z,6.35
2019-03-15T05:41:11.217Z,6.38
2019-03-15T05:43:37.815Z,6.34
2019-03-15T05:46:04.517Z,6.28
2019-03-15T05:48:31.300Z,6.36
2019-03-15T05:50:58.314Z,6.33
2019-03-15T05:53:24.925Z,6.30
2019-03-15T05:55:51.529Z,6.34
2019-03-15T05:58:21.673Z,6.28
2019-03-15T06:00:46.857Z,6.28
2019-03-15T06:03:15.158Z,6.39
2019-03-15T06:05:41.968Z,6.42
2019-03-15T06:08:09.358Z,6.37
2019-03-15T06:10:36.071Z,6.42
2019-03-15T06:13:02.856Z,6.41
2019-03-15T06:15:29.569Z,6.40
2019-03-15T06:17:56.227Z,6.47
2019-03-15T06:20:23.014Z,6.25
2019-03-15T06:22:49.722Z,6.43
2019-03-15T06:25:16.396Z,6.47
2019-03-15T06:27:43.091Z,6.43
2019-03-15T06:30:09.874Z,6.53
2019-03-15T06:32:36.555Z,6.59
2019-03-15T06:35:04.271Z,6.63
2019-03-15T06:37:30.934Z,6.50
2019-03-15T06:39:57.539Z,6.52
2019-03-15T06:42:24.232Z,6.50
2019-03-15T06:44:57.953Z,6.48
2019-03-15T06:47:19.451Z,6.50
2019-03-15T06:49:46.140Z,6.58
2019-03-15T06:52:14.003Z,6.66
2019-03-15T06:54:40.729Z,6.65
2019-03-15T06:57:07.457Z,6.69
2019-03-15T06:59:34.058Z,6.76
2019-03-15T07:02:00.812Z,6.86
2019-03-15T07:04:27.527Z,6.72
2019-03-15T07:06:54.318Z,6.76
2019-03-15T07:09:21.112Z,6.70
2019-03-15T07:11:47.779Z,6.54
2019-03-15T07:14:14.587Z,6.52
2019-03-15T07:16:41.167Z,6.47
2019-03-15T07:19:07.953Z,6.41
2019-03-15T07:21:36.809Z,6.45
2019-03-15T07:24:03.325Z,6.41
2019-03-15T07:26:30.113Z,6.55
2019-03-15T07:28:56.812Z,6.61
2019-03-15T07:31:23.582Z,6.55
2019-03-15T07:33:50.184Z,6.75
2019-03-15T07:36:16.983Z,6.74
2019-03-15T07:38:43.818Z,6.94
2019-03-15T07:41:10.655Z,6.92
2019-03-15T07:43:37.231Z,6.93
2019-03-15T07:46:04.025Z,6.92
2019-03-15T07:48:30.733Z,6.78
2019-03-15T07:50:57.566Z,6.84
2019-03-15T07:53:24.382Z,6.89
2019-03-15T07:55:51.071Z,6.94
2019-03-15T07:58:17.905Z,6.97
2019-03-15T08:00:44.613Z,6.74
2019-03-15T08:03:11.389Z,6.82
2019-03-15T08:05:38.295Z,6.75
2019-03-15T08:08:05.145Z,6.89
2019-03-15T08:10:31.850Z,6.85
2019-03-15T08:12:58.527Z,6.86
2019-03-15T08:15:25.237Z,6.77
2019-03-15T08:17:52.011Z,6.80
2019-03-15T08:20:18.719Z,6.83
2019-03-15T08:22:45.531Z,6.96
2019-03-15T08:25:12.539Z,6.90
2019-03-15T08:27:39.299Z,6.91
2019-03-15T08:30:08.222Z,6.78
2019-03-15T08:32:34.922Z,6.80
2019-03-15T08:35:03.907Z,6.77
2019-03-15T08:37:30.143Z,6.77
2019-03-15T08:39:56.783Z,6.78
2019-03-15T08:42:23.453Z,6.75
2019-03-15T08:44:50.328Z,6.89
2019-03-15T08:47:17.030Z,6.92
2019-03-15T08:49:43.763Z,6.94
2019-03-15T08:52:10.466Z,6.82
2019-03-15T08:54:37.171Z,6.74
2019-03-15T08:57:03.970Z,6.84
2019-03-15T08:59:30.673Z,6.86
2019-03-15T09:01:57.308Z,6.97
2019-03-15T09:04:23.913Z,6.89
2019-03-15T09:06:50.706Z,6.89
2019-03-15T09:09:17.488Z,6.85
2019-03-15T09:11:44.288Z,6.82
2019-03-15T09:14:10.866Z,6.85
2019-03-15T09:16:37.871Z,6.85
2019-03-15T09:19:04.557Z,6.97
2019-03-15T09:21:31.266Z,6.84
2019-03-15T09:23:57.960Z,6.84
2019-03-15T09:26:24.553Z,6.87
2019-03-15T09:28:51.210Z,6.88
2019-03-15T09:31:17.913Z,7.00
2019-03-15T09:33:44.488Z,7.08
2019-03-15T09:36:11.235Z,6.99
2019-03-15T09:38:38.003Z,6.97
2019-03-15T09:41:04.813Z,6.92
2019-03-15T09:43:31.483Z,6.99
2019-03-15T09:45:58.276Z,6.99
2019-03-15T09:48:25.014Z,6.98
2019-03-15T09:50:52.033Z,7.15
2019-03-15T09:53:18.791Z,7.18
2019-03-15T09:55:45.946Z,7.23
2019-03-15T09:58:12.661Z,7.09
2019-03-15T10:00:39.446Z,7.02
2019-03-15T10:03:06.216Z,6.99
2019-03-15T10:05:33.007Z,7.01
2019-03-15T10:07:59.705Z,7.06
2019-03-15T10:10:26.402Z,7.09
2019-03-15T10:13:05.337Z,7.05
2019-03-15T10:15:21.668Z,7.03
2019-03-15T10:17:48.480Z,7.15
2019-03-15T10:20:17.259Z,7.20
2019-03-15T10:22:44.062Z,7.06
2019-03-15T10:25:10.841Z,7.06
2019-03-15T10:27:37.636Z,7.12
2019-03-15T10:30:05.378Z,7.11
2019-03-15T10:32:32.181Z,7.06
2019-03-15T10:34:58.758Z,7.03
2019-03-15T10:37:25.569Z,6.95
2019-03-15T10:39:52.342Z,7.04
2019-03-15T10:42:19.159Z,7.05
2019-03-15T10:44:47.032Z,7.01
2019-03-15T10:47:13.814Z,7.09
2019-03-15T10:49:40.476Z,7.13
2019-03-15T10:52:07.286Z,7.17
2019-03-15T10:54:34.011Z,7.18
2019-03-15T10:57:00.788Z,7.26
2019-03-15T10:59:28.222Z,7.29
2019-03-15T11:01:55.034Z,7.26
2019-03-15T11:04:21.705Z,7.17
2019-03-15T11:06:48.521Z,7.24
2019-03-15T11:09:15.323Z,7.21
2019-03-15T11:11:42.115Z,7.19
2019-03-15T11:14:08.709Z,7.30
2019-03-15T11:16:35.409Z,7.40
2019-03-15T11:19:02.079Z,7.35
2019-03-15T11:21:28.767Z,7.36
2019-03-15T11:23:55.448Z,7.42
2019-03-15T11:26:22.215Z,7.43
2019-03-15T11:28:48.901Z,7.42
2019-03-15T11:31:15.633Z,7.53
2019-03-15T11:33:42.311Z,7.59
2019-03-15T11:36:09.023Z,7.59
2019-03-15T11:38:35.603Z,7.61
2019-03-15T11:41:02.278Z,7.62
2019-03-15T11:43:28.974Z,7.68
2019-03-15T11:45:55.652Z,7.76
2019-03-15T11:48:22.332Z,7.76
2019-03-15T11:50:49.030Z,7.90
2019-03-15T11:53:18.790Z,7.83
2019-03-15T11:55:44.371Z,7.85
2019-03-15T11:58:11.124Z,7.95
2019-03-15T12:00:37.901Z,7.98
2019-03-15T12:03:05.455Z,8.04
2019-03-15T12:05:32.216Z,8.12
2019-03-15T12:07:58.904Z,8.25
2019-03-15T12:10:25.567Z,8.36
2019-03-15T12:12:52.273Z,8.44
2019-03-15T12:15:18.987Z,8.55
2019-03-15T12:17:45.770Z,8.67
2019-03-15T12:20:12.656Z,8.77
2019-03-15T12:22:39.467Z,8.87
2019-03-15T12:25:06.320Z,9.07
2019-03-15T12:27:33.106Z,9.30
2019-03-15T12:29:59.772Z,9.55
2019-03-15T12:32:26.558Z,9.66
2019-03-15T12:34:53.129Z,9.83
2019-03-15T12:37:19.791Z,9.88
2019-03-15T12:39:46.486Z,10.22
2019-03-15T12:42:13.168Z,10.35
2019-03-15T12:44:39.774Z,10.26
2019-03-15T12:47:06.517Z,10.31
2019-03-15T12:49:33.323Z,10.45
2019-03-15T12:51:59.907Z,10.66
2019-03-15T12:54:26.595Z,10.66
2019-03-15T12:56:54.237Z,11.05
2019-03-15T12:59:21.081Z,11.24
2019-03-15T13:01:47.744Z,12.02
2019-03-15T13:04:14.336Z,13.09
2019-03-15T13:06:41.010Z,12.73
2019-03-15T13:09:07.639Z,12.61
2019-03-15T13:11:34.312Z,12.94
2019-03-15T13:14:01.102Z,12.38
2019-03-15T13:16:27.774Z,12.36
2019-03-15T13:18:54.591Z,12.53
2019-03-15T13:21:21.267Z,13.09
2019-03-15T13:23:47.981Z,13.03
2019-03-15T13:26:14.764Z,12.62
2019-03-15T13:28:41.553Z,12.22
2019-03-15T13:31:08.230Z,12.01
2019-03-15T13:33:34.819Z,11.97
2019-03-15T13:36:01.598Z,12.03
2019-03-15T13:38:28.302Z,11.77
2019-03-15T13:40:54.869Z,11.54
2019-03-15T13:43:21.547Z,11.25
2019-03-15T13:45:48.353Z,11.22
2019-03-15T13:48:15.092Z,11.04
2019-03-15T13:50:41.764Z,10.93
2019-03-15T13:53:08.451Z,10.95
2019-03-15T13:55:35.154Z,10.88
2019-03-15T13:58:01.719Z,10.90
2019-03-15T14:00:28.300Z,10.86
2019-03-15T14:02:55.002Z,10.90
2019-03-15T14:05:21.806Z,10.94
2019-03-15T14:07:48.580Z,10.91
2019-03-15T14:10:15.406Z,10.96
2019-03-15T14:12:42.065Z,11.05
2019-03-15T14:15:09.622Z,11.01
2019-03-15T14:17:36.303Z,11.00
2019-03-15T14:20:04.048Z,10.84
2019-03-15T14:22:30.719Z,10.73
2019-03-15T14:24:57.408Z,10.66
2019-03-15T14:27:36.606Z,10.69
2019-03-15T14:29:52.594Z,10.66
2019-03-15T14:32:19.184Z,10.51
2019-03-15T14:34:45.889Z,10.43
2019-03-15T14:37:12.698Z,10.32
2019-03-15T14:39:40.398Z,10.18
2019-03-15T14:42:07.408Z,10.15
2019-03-15T14:44:34.165Z,10.18
2019-03-15T14:47:00.831Z,10.23
2019-03-15T14:49:27.581Z,10.20
2019-03-15T14:51:54.268Z,10.17
2019-03-15T14:54:20.985Z,10.01
2019-03-15T14:56:47.558Z,9.81
2019-03-15T14:59:14.361Z,9.67
2019-03-15T15:01:41.059Z,9.60
2019-03-15T15:04:07.905Z,9.70
2019-03-15T15:06:34.477Z,9.68
2019-03-15T15:09:01.249Z,9.59
2019-03-15T15:11:27.960Z,9.57
2019-03-15T15:13:54.751Z,9.46
2019-03-15T15:16:21.445Z,9.45
2019-03-15T15:18:48.204Z,9.49
2019-03-15T15:21:14.905Z,9.48
2019-03-15T15:23:41.701Z,9.50
2019-03-15T15:26:08.493Z,9.56
2019-03-15T15:28:35.172Z,9.62
2019-03-15T15:31:01.916Z,9.57
2019-03-15T15:33:28.489Z,9.64
2019-03-15T15:35:55.090Z,9.61
2019-03-15T15:38:21.754Z,9.57
2019-03-15T15:40:48.548Z,9.52
2019-03-15T15:43:15.325Z,9.50
2019-03-15T15:45:42.219Z,9.39
2019-03-15T15:48:08.898Z,9.29
2019-03-15T15:50:35.582Z,9.26
2019-03-15T15:53:02.287Z,9.12
2019-03-15T15:55:29.117Z,9.15
2019-03-15T15:57:55.760Z,9.12
2019-03-15T16:00:22.553Z,9.00
2019-03-15T16:02:49.230Z,8.93
2019-03-15T16:05:15.936Z,8.87
2019-03-15T16:07:42.725Z,8.84
2019-03-15T16:10:10.065Z,8.83
2019-03-15T16:12:36.745Z,8.81
2019-03-15T16:15:04.500Z,8.80
2019-03-15T16:17:31.162Z,8.84
2019-03-15T16:19:57.949Z,8.91
2019-03-15T16:22:24.650Z,8.78
2019-03-15T16:24:51.324Z,8.90
2019-03-15T16:27:18.213Z,8.86
2019-03-15T16:29:44.927Z,8.71
2019-03-15T16:32:11.709Z,8.74
2019-03-15T16:34:38.510Z,8.69
2019-03-15T16:37:05.170Z,8.76
2019-03-15T16:39:31.856Z,8.65
2019-03-15T16:41:58.461Z,8.66
2019-03-15T16:44:25.172Z,8.73
2019-03-15T16:46:51.961Z,8.73
2019-03-15T16:49:18.682Z,8.81
2019-03-15T16:51:45.368Z,8.80
2019-03-15T16:54:12.086Z,8.69
2019-03-15T16:56:38.680Z,8.73
2019-03-15T16:59:05.353Z,8.78
2019-03-15T17:01:32.036Z,8.80
2019-03-15T17:03:58.754Z,8.73
2019-03-15T17:06:25.436Z,8.78
2019-03-15T17:08:52.283Z,8.79
2019-03-15T17:11:19.092Z,8.74
2019-03-15T17:13:45.943Z,8.74
2019-03-15T17:16:12.886Z,8.72
2019-03-15T17:18:39.799Z,8.73
2019-03-15T17:21:06.503Z,8.68
2019-03-15T17:23:33.179Z,8.67
2019-03-15T17:25:59.795Z,8.67
2019-03-15T17:28:26.364Z,8.64
2019-03-15T17:30:53.135Z,8.70
2019-03-15T17:33:19.720Z,8.70
2019-03-15T17:35:46.411Z,8.71
2019-03-15T17:38:13.099Z,8.76
2019-03-15T17:40:39.788Z,8.75
2019-03-15T17:43:07.604Z,8.80
2019-03-15T17:45:34.195Z,8.74
2019-03-15T17:48:00.861Z,8.75
2019-03-15T17:50:27.658Z,8.69
2019-03-15T17:52:54.354Z,8.64
2019-03-15T17:55:21.331Z,8.66
2019-03-15T17:57:48.034Z,8.62
2019-03-15T18:00:22.479Z,8.59
2019-03-15T18:02:49.284Z,8.57
2019-03-15T18:05:16.050Z,8.53
2019-03-15T18:07:42.979Z,8.43
2019-03-15T18:10:09.764Z,8.54
2019-03-15T18:12:36.576Z,8.57
2019-03-15T18:15:03.497Z,8.45
2019-03-15T18:17:30.369Z,8.41
2019-03-15T18:19:57.171Z,8.46
2019-03-15T18:22:23.861Z,8.46
2019-03-15T18:24:50.631Z,8.40
2019-03-15T18:27:17.358Z,8.33
2019-03-15T18:29:44.115Z,8.30
2019-03-15T18:32:10.936Z,8.25
2019-03-15T18:34:37.704Z,8.21
2019-03-15T18:37:04.513Z,8.13
2019-03-15T18:39:31.088Z,8.18
2019-03-15T18:41:57.899Z,8.17
2019-03-15T18:44:24.669Z,8.14
2019-03-15T18:46:51.449Z,8.14
2019-03-15T18:49:18.822Z,8.19
2019-03-15T18:51:45.758Z,8.29
2019-03-15T18:54:17.430Z,8.15
2019-03-15T18:56:41.263Z,8.09
2019-03-15T18:59:08.100Z,8.05
2019-03-15T19:01:35.038Z,7.98
2019-03-15T19:04:01.832Z,7.91
2019-03-15T19:06:28.626Z,7.99
2019-03-15T19:08:55.238Z,7.93
2019-03-15T19:11:21.922Z,7.76
2019-03-15T19:13:48.724Z,7.82
2019-03-15T19:16:19.879Z,7.63
2019-03-15T19:18:44.058Z,7.91
2019-03-15T19:21:10.848Z,7.87
2019-03-15T19:23:37.457Z,7.87
2019-03-15T19:26:04.268Z,7.71
2019-03-15T19:28:30.995Z,7.63
2019-03-15T19:30:57.543Z,7.55
2019-03-15T19:33:24.244Z,7.57
2019-03-15T19:35:50.911Z,7.53
2019-03-15T19:38:17.592Z,7.59
2019-03-15T19:40:44.366Z,7.57
2019-03-15T19:43:10.964Z,7.54
2019-03-15T19:45:37.695Z,7.69
2019-03-15T19:48:04.524Z,7.72
2019-03-15T19:50:31.097Z,7.64
2019-03-15T19:52:57.828Z,7.25
2019-03-15T19:55:24.421Z,7.50
2019-03-15T19:57:51.207Z,7.47
2019-03-15T20:00:17.932Z,7.47
2019-03-15T20:02:44.611Z,7.58
2019-03-15T20:05:11.604Z,7.56
2019-03-15T20:07:38.484Z,7.55
2019-03-15T20:10:05.787Z,7.51
2019-03-15T20:12:52.205Z,7.41
2019-03-15T20:15:19.193Z,7.25
2019-03-15T20:17:46.043Z,7.10
2019-03-15T20:20:12.855Z,7.30
2019-03-15T20:22:39.629Z,7.27
2019-03-15T20:25:08.385Z,7.22
2019-03-15T20:27:35.084Z,7.34
2019-03-15T20:30:01.970Z,7.26
2019-03-15T20:32:28.653Z,7.26
2019-03-15T20:34:55.411Z,7.11
2019-03-15T20:37:21.983Z,7.13
2019-03-15T20:39:49.026Z,7.16
2019-03-15T20:42:15.599Z,7.27
2019-03-15T20:44:42.294Z,7.29
2019-03-15T20:47:08.890Z,7.29
2019-03-15T20:49:36.599Z,7.17
2019-03-15T20:52:03.461Z,7.12
2019-03-15T20:54:31.158Z,7.11
2019-03-15T20:57:17.468Z,6.93
2019-03-15T20:59:44.173Z,7.07
2019-03-15T21:02:10.753Z,6.89
2019-03-15T21:04:37.542Z,6.99
2019-03-15T21:07:04.208Z,6.89
2019-03-15T21:09:30.898Z,6.89
2019-03-15T21:11:57.476Z,6.74
2019-03-15T21:14:24.177Z,6.72
2019-03-15T21:16:50.868Z,6.65
2019-03-15T21:19:17.550Z,6.78
2019-03-15T21:21:44.326Z,6.82
2019-03-15T21:24:10.914Z,6.81
2019-03-15T21:26:37.495Z,6.90
2019-03-15T21:29:04.277Z,6.76
2019-03-15T21:31:30.981Z,6.69
2019-03-15T21:33:57.776Z,6.88
2019-03-15T21:36:24.573Z,6.78
2019-03-15T21:38:51.394Z,6.67
2019-03-15T21:41:18.097Z,6.70
2019-03-15T21:43:44.875Z,6.70
2019-03-15T21:46:11.576Z,6.65
2019-03-15T21:48:38.155Z,6.61
2019-03-15T21:51:04.965Z,6.66
2019-03-15T21:53:31.605Z,6.46
2019-03-15T21:55:58.314Z,6.49
2019-03-15T21:58:25.096Z,6.60
2019-03-15T22:01:01.546Z,6.67
2019-03-15T22:03:20.627Z,6.60
2019-03-15T22:05:47.756Z,6.59
2019-03-15T22:08:14.500Z,6.47
2019-03-15T22:10:41.610Z,6.54
2019-03-15T22:13:08.284Z,6.51
2019-03-15T22:15:34.991Z,6.58
2019-03-15T22:18:01.663Z,6.60
2019-03-15T22:20:28.376Z,6.48
2019-03-15T22:22:54.954Z,6.45
2019-03-15T22:25:21.953Z,6.43
2019-03-15T22:27:50.333Z,6.48
2019-03-15T22:30:17.244Z,6.52
2019-03-15T22:32:43.947Z,6.49
2019-03-15T22:35:11.266Z,6.46
2019-03-15T22:37:38.049Z,6.40
2019-03-15T22:40:05.177Z,6.37
2019-03-15T22:42:31.854Z,6.42
2019-03-15T22:44:58.546Z,6.52
2019-03-15T22:47:25.242Z,6.41
2019-03-15T22:49:52.146Z,6.38
2019-03-15T22:52:19.324Z,6.47
2019-03-15T22:54:46.055Z,6.40
2019-03-15T22:57:12.732Z,6.43
2019-03-15T22:59:39.425Z,6.38
2019-03-15T23:02:06.318Z,6.36
2019-03-15T23:04:32.892Z,6.23
2019-03-15T23:06:59.591Z,6.35
2019-03-15T23:09:26.267Z,6.41
2019-03-15T23:11:52.942Z,6.29
2019-03-15T23:14:19.520Z,6.39
2019-03-15T23:16:46.213Z,6.40
2019-03-15T23:19:12.900Z,6.43
2019-03-15T23:21:39.703Z,6.39
2019-03-15T23:24:06.479Z,6.41
2019-03-15T23:26:33.275Z,6.45
2019-03-15T23:28:59.852Z,6.43
2019-03-15T23:31:26.540Z,6.43
2019-03-15T23:33:53.123Z,6.45
2019-03-15T23:36:19.818Z,6.52
2019-03-15T23:38:46.934Z,6.45
2019-03-15T23:41:13.703Z,6.58
2019-03-15T23:43:40.405Z,6.66
2019-03-15T23:46:07.181Z,6.69
2019-03-15T23:48:33.985Z,6.69
2019-03-15T23:51:00.587Z,6.67
2019-03-15T23:53:27.178Z,6.63
2019-03-15T23:55:55.014Z,6.62
2019-03-15T23:58:21.849Z,6.65
